Time;durP1;ratioP1;P1;durP2;ratioP2;P2;SDS_P1;SDS_P2;PMS_P1;PMS_P2;Temp;Humidity;BMP_temperature;BMP_pressure;BME280_temperature;BME280_humidity;BME280_pressure;Samples;Min_cycle;Max_cycle;Signal;HPM_P1;HPM_P2
2022/03/17 00:00:25;;;;;;;26.00;22.20;;;;;;-10378.10;;;;106458;1284;65243;-36
2022/03/17 00:03:07;;;;;;;24.70;22.00;;;;;;-10253.80;;;;106420;1284;65627;-36
2022/03/17 00:05:35;;;;;;;25.30;22.10;;;;;;-10129.49;;;;106079;1284;65738;-32
2022/03/17 00:08:03;;;;;;;25.00;22.30;;;;;;-10129.49;;;;106321;1285;65737;-33
2022/03/17 00:10:31;;;;;;;24.40;21.80;;;;;;-10253.80;;;;106093;1285;66158;-32
2022/03/17 00:12:58;;;;;;;24.10;21.30;;;;;;-10253.80;;;;106328;1285;65727;-40
2022/03/17 00:15:25;;;;;;;25.10;22.40;;;;;;-10253.80;;;;106330;1285;65770;-33
2022/03/17 00:17:53;;;;;;;25.10;21.50;;;;;;-10129.49;;;;106339;1285;65748;-33
2022/03/17 00:20:22;;;;;;;26.10;23.20;;;;;;-10253.80;;;;106297;1285;66929;-37
2022/03/17 00:22:50;;;;;;;25.80;23.00;;;;;;-10005.19;;;;106329;1285;65711;-36
2022/03/17 00:25:17;;;;;;;25.70;23.00;;;;;;-10129.49;;;;106329;1285;65754;-37
2022/03/17 00:27:45;;;;;;;25.60;22.70;;;;;;-10253.80;;;;106214;1285;65607;-35
2022/03/17 00:30:14;;;;;;;25.40;22.70;;;;;;-10253.80;;;;106332;1285;65596;-37
2022/03/17 00:32:41;;;;;;;24.90;22.20;;;;;;-10129.49;;;;106302;1285;65632;-32
2022/03/17 00:37:55;;;;;;;25.20;22.50;;;;;;-10253.80;;;;106450;1284;67026;-33
2022/03/17 00:40:23;;;;;;;24.80;21.70;;;;;;-10253.80;;;;106303;1285;65684;-38
2022/03/17 00:42:51;;;;;;;23.90;21.50;;;;;;-10253.80;;;;106457;1284;65610;-36
2022/03/17 00:45:19;;;;;;;24.80;22.10;;;;;;-10129.49;;;;106291;1285;65595;-35
2022/03/17 00:47:46;;;;;;;25.10;22.30;;;;;;-10129.49;;;;106358;1285;65679;-36
2022/03/17 00:50:13;;;;;;;26.70;23.60;;;;;;-10129.49;;;;106329;1285;65840;-32
2022/03/17 00:52:40;;;;;;;25.80;23.00;;;;;;-10253.80;;;;106327;1285;66398;-33
2022/03/17 00:55:07;;;;;;;25.60;22.70;;;;;;-10129.49;;;;106349;1285;65774;-33
2022/03/17 00:57:39;;;;;;;24.90;22.10;;;;;;-10129.49;;;;106304;1285;65807;-34
2022/03/17 01:00:14;;;;;;;26.40;23.40;;;;;;-10253.80;;;;106349;1285;65642;-33
2022/03/17 01:02:44;;;;;;;26.60;22.30;;;;;;-10253.80;;;;106343;1285;66252;-33
2022/03/17 01:05:12;;;;;;;24.90;22.20;;;;;;-10378.10;;;;106449;1284;65590;-33
2022/03/17 01:07:40;;;;;;;24.50;22.00;;;;;;-10129.49;;;;106334;1285;65534;-32
2022/03/17 01:10:11;;;;;;;25.10;22.40;;;;;;-10129.49;;;;106428;1284;64430;-33
2022/03/17 01:12:39;;;;;;;23.20;20.80;;;;;;-10253.80;;;;106314;1285;65645;-31
2022/03/17 01:15:07;;;;;;;26.70;22.80;;;;;;-10129.49;;;;106364;1285;65714;-37
2022/03/17 01:17:34;;;;;;;26.30;22.90;;;;;;-10129.49;;;;106344;1285;65700;-34
2022/03/17 01:20:04;;;;;;;24.90;22.30;;;;;;-10129.49;;;;106322;1285;65616;-33
2022/03/17 01:22:33;;;;;;;23.80;21.30;;;;;;-10005.19;;;;106459;1284;65890;-33
2022/03/17 01:25:00;;;;;;;24.90;22.20;;;;;;-10005.19;;;;106120;1285;65503;-35
2022/03/17 01:27:27;;;;;;;24.80;22.30;;;;;;-10129.49;;;;106092;1285;65721;-35
2022/03/17 01:29:55;;;;;;;25.20;21.90;;;;;;-10502.40;;;;106192;1286;65693;-36
2022/03/17 01:32:25;;;;;;;24.00;21.40;;;;;;-10253.80;;;;106486;1284;65799;-37
2022/03/17 01:34:52;;;;;;;25.80;21.70;;;;;;-10005.19;;;;106125;1285;65681;-38
2022/03/17 01:37:20;;;;;;;24.90;22.20;;;;;;-10129.49;;;;106180;1285;65669;-34
2022/03/17 01:39:47;;;;;;;25.90;23.10;;;;;;-10129.49;;;;106190;1285;66600;-32
2022/03/17 01:42:14;;;;;;;23.80;21.30;;;;;;-10005.19;;;;106349;1285;65728;-31
2022/03/17 01:44:41;;;;;;;24.50;21.60;;;;;;-10502.40;;;;106167;1285;65572;-46
2022/03/17 01:47:27;;;;;;;25.10;22.40;;;;;;-10502.40;;;;106502;1284;65724;-35
2022/03/17 01:50:05;;;;;;;25.20;22.40;;;;;;-10253.80;;;;106346;1285;65422;-32
2022/03/17 01:52:33;;;;;;;25.20;22.00;;;;;;-10253.80;;;;106383;1285;67023;-33
2022/03/17 01:55:03;;;;;;;25.10;21.80;;;;;;-10378.10;;;;106377;1285;65616;-34
2022/03/17 01:57:31;;;;;;;24.90;22.30;;;;;;-10005.19;;;;106468;1284;65600;-32
2022/03/17 01:59:59;;;;;;;24.60;21.70;;;;;;-10129.49;;;;106353;1285;65684;-38
2022/03/17 02:02:27;;;;;;;24.50;21.50;;;;;;-10129.49;;;;106407;1285;65722;-39
2022/03/17 02:04:54;;;;;;;24.30;21.80;;;;;;-10005.19;;;;106482;1284;65693;-37
2022/03/17 02:07:23;;;;;;;23.70;21.30;;;;;;-10378.10;;;;106332;1285;65690;-34
2022/03/17 02:09:50;;;;;;;23.80;21.30;;;;;;-10005.19;;;;106197;1285;65728;-36
2022/03/17 02:15:07;;;;;;;24.70;22.00;;;;;;-10378.10;;;;106344;1285;65560;-35
2022/03/17 02:17:39;;;;;;;23.90;21.30;;;;;;-10253.80;;;;106472;1284;65914;-35
2022/03/17 02:20:11;;;;;;;24.40;21.70;;;;;;-10129.49;;;;106460;1284;65793;-35
2022/03/17 02:22:49;;;;;;;23.30;20.80;;;;;;-10253.80;;;;106104;1285;65594;-35
2022/03/17 02:25:34;;;;;;;24.30;20.80;;;;;;-10253.80;;;;106091;1286;65672;-32
2022/03/17 02:28:07;;;;;;;24.10;21.40;;;;;;-10253.80;;;;106367;1285;65609;-32
2022/03/17 02:30:37;;;;;;;24.30;21.90;;;;;;-10378.10;;;;106399;1285;66967;-32
2022/03/17 02:33:08;;;;;;;25.50;22.80;;;;;;-10005.19;;;;106461;1284;65796;-32
2022/03/17 02:35:39;;;;;;;24.00;21.00;;;;;;-10129.49;;;;106366;1284;65598;-36
2022/03/17 02:38:07;;;;;;;23.90;21.40;;;;;;-10253.80;;;;106352;1285;66206;-39
2022/03/17 02:40:36;;;;;;;23.80;21.20;;;;;;-10378.10;;;;106376;1285;65649;-33
2022/03/17 02:43:05;;;;;;;24.10;21.40;;;;;;-10253.80;;;;106301;1285;65744;-33
2022/03/17 02:45:34;;;;;;;23.50;21.00;;;;;;-10378.10;;;;106198;1286;65707;-35
2022/03/17 02:48:03;;;;;;;23.90;21.50;;;;;;-10378.10;;;;106489;1284;65738;-35
2022/03/17 02:50:31;;;;;;;25.30;22.20;;;;;;-10253.80;;;;106356;1285;65740;-32
2022/03/17 02:53:04;;;;;;;23.80;21.30;;;;;;-10129.49;;;;106395;1285;65865;-32
2022/03/17 02:55:40;;;;;;;23.60;20.90;;;;;;-10129.49;;;;106356;1285;65719;-33
2022/03/17 02:58:09;;;;;;;24.50;21.90;;;;;;-10253.80;;;;106172;1286;65659;-32
2022/03/17 03:00:38;;;;;;;23.50;21.10;;;;;;-10378.10;;;;106387;1285;65440;-35
2022/03/17 03:03:07;;;;;;;23.50;21.10;;;;;;-10129.49;;;;106467;1284;65627;-42
2022/03/17 03:05:35;;;;;;;23.90;21.40;;;;;;-10129.49;;;;106423;1285;65587;-35
2022/03/17 03:08:03;;;;;;;24.70;21.90;;;;;;-10129.49;;;;106482;1284;65730;-37
2022/03/17 03:10:31;;;;;;;24.20;20.80;;;;;;-10129.49;;;;106408;1285;65616;-36
2022/03/17 03:12:59;;;;;;;23.70;21.30;;;;;;-10129.49;;;;106381;1285;64843;-33
2022/03/17 03:15:26;;;;;;;26.30;22.10;;;;;;-10005.19;;;;106370;1285;65686;-40
2022/03/17 03:17:57;;;;;;;24.30;21.50;;;;;;-10253.80;;;;106469;1284;65570;-34
2022/03/17 03:20:24;;;;;;;24.50;21.90;;;;;;-10253.80;;;;106375;1285;66391;-35
2022/03/17 03:22:52;;;;;;;25.30;22.50;;;;;;-10129.49;;;;106442;1284;66449;-36
2022/03/17 03:25:19;;;;;;;25.10;22.50;;;;;;-10129.49;;;;106372;1285;65689;-32
2022/03/17 03:27:46;;;;;;;25.00;22.10;;;;;;-10378.10;;;;106356;1285;65605;-32
2022/03/17 03:30:14;;;;;;;23.90;21.30;;;;;;-10129.49;;;;106417;1285;65694;-46
2022/03/17 03:32:47;;;;;;;24.50;21.90;;;;;;-10253.80;;;;106185;1286;66979;-34
2022/03/17 03:38:01;;;;;;;24.50;21.70;;;;;;-10253.80;;;;106360;1285;65699;-34
2022/03/17 03:40:28;;;;;;;25.70;22.80;;;;;;-10253.80;;;;106455;1284;65651;-36
2022/03/17 03:42:56;;;;;;;25.20;22.50;;;;;;-10129.49;;;;106401;1285;65623;-33
2022/03/17 03:45:23;;;;;;;26.90;21.20;;;;;;-10005.19;;;;106382;1285;65411;-33
2022/03/17 03:47:50;;;;;;;24.50;21.80;;;;;;-10129.49;;;;106444;1284;65674;-32
2022/03/17 03:50:18;;;;;;;26.10;23.20;;;;;;-10378.10;;;;106372;1285;65596;-33
2022/03/17 03:52:45;;;;;;;24.40;21.80;;;;;;-10129.49;;;;106353;1285;66813;-32
2022/03/17 03:55:13;;;;;;;24.80;21.20;;;;;;-10253.80;;;;106473;1284;65693;-33
2022/03/17 03:57:40;;;;;;;24.40;21.60;;;;;;-10005.19;;;;106469;1284;65700;-33
2022/03/17 04:00:26;;;;;;;23.80;21.20;;;;;;-10378.10;;;;106401;1285;66153;-37
2022/03/17 04:02:55;;;;;;;24.60;21.80;;;;;;-10129.49;;;;106378;1285;65574;-32
2022/03/17 04:05:29;;;;;;;24.70;22.10;;;;;;-10129.49;;;;106440;1284;66391;-33
2022/03/17 04:07:57;;;;;;;24.60;21.90;;;;;;-10129.49;;;;106361;1285;65685;-31
2022/03/17 04:10:26;;;;;;;25.00;22.40;;;;;;-10129.49;;;;106447;1284;65591;-31
2022/03/17 04:12:54;;;;;;;25.10;22.10;;;;;;-10378.10;;;;106385;1285;65741;-34
2022/03/17 04:15:21;;;;;;;24.20;21.50;;;;;;-10253.80;;;;106395;1285;65735;-31
2022/03/17 04:17:51;;;;;;;24.60;22.00;;;;;;-10005.19;;;;106360;1285;65693;-33
2022/03/17 04:20:18;;;;;;;23.50;21.00;;;;;;-10129.49;;;;106417;1285;65599;-32
2022/03/17 04:22:46;;;;;;;23.30;20.80;;;;;;-10005.19;;;;106459;1284;65689;-33
2022/03/17 04:25:13;;;;;;;24.10;21.50;;;;;;-10005.19;;;;106069;1285;65720;-35
2022/03/17 04:27:41;;;;;;;24.70;22.10;;;;;;-10253.80;;;;106240;1285;65790;-36
2022/03/17 04:30:10;;;;;;;24.10;21.50;;;;;;-10253.80;;;;106417;1284;65689;-35
2022/03/17 04:32:37;;;;;;;23.80;21.30;;;;;;-10253.80;;;;106388;1285;65600;-34
2022/03/17 04:35:06;;;;;;;23.10;20.60;;;;;;-10005.19;;;;106391;1285;66884;-31
2022/03/17 04:37:34;;;;;;;23.30;20.80;;;;;;-10129.49;;;;106432;1284;65741;-32
2022/03/17 04:40:05;;;;;;;23.20;20.40;;;;;;-10253.80;;;;106371;1285;65679;-33
2022/03/17 04:42:33;;;;;;;24.00;21.20;;;;;;-10378.10;;;;106465;1283;65599;-31
2022/03/17 04:45:00;;;;;;;22.50;20.00;;;;;;-10129.49;;;;106213;1286;65785;-35
2022/03/17 04:47:27;;;;;;;23.00;20.40;;;;;;-10378.10;;;;106410;1285;66521;-34
2022/03/17 04:49:55;;;;;;;23.00;20.70;;;;;;-10129.49;;;;106374;1285;65722;-34
2022/03/17 04:55:09;;;;;;;23.20;20.80;;;;;;-10005.19;;;;106098;1286;64851;-35
2022/03/17 04:57:36;;;;;;;22.10;19.80;;;;;;-10129.49;;;;106395;1285;65982;-35
2022/03/17 05:00:06;;;;;;;23.40;20.90;;;;;;-10129.49;;;;106458;1284;65688;-34
2022/03/17 05:02:33;;;;;;;23.20;20.40;;;;;;-10253.80;;;;106396;1285;65869;-34
2022/03/17 05:05:00;;;;;;;24.60;22.00;;;;;;-10253.80;;;;106476;1284;66626;-35
2022/03/17 05:07:28;;;;;;;22.90;20.40;;;;;;-10378.10;;;;106385;1285;65592;-35
2022/03/17 05:09:55;;;;;;;23.20;20.80;;;;;;-10129.49;;;;106396;1285;65717;-32
2022/03/17 05:12:22;;;;;;;24.40;21.80;;;;;;-10129.49;;;;106076;1285;65586;-32
2022/03/17 05:14:49;;;;;;;22.30;19.90;;;;;;-10129.49;;;;106395;1285;65690;-35
2022/03/17 05:17:16;;;;;;;23.60;21.00;;;;;;-10253.80;;;;106374;1285;65596;-33
2022/03/17 05:19:43;;;;;;;22.40;20.10;;;;;;-10129.49;;;;106385;1285;65648;-36
2022/03/17 05:22:10;;;;;;;23.30;20.80;;;;;;-10129.49;;;;106379;1285;65730;-36
2022/03/17 05:24:38;;;;;;;23.90;21.10;;;;;;-10253.80;;;;106487;1284;65716;-34
2022/03/17 05:27:05;;;;;;;22.40;20.00;;;;;;-10129.49;;;;106382;1285;66031;-34
2022/03/17 05:29:33;;;;;;;22.30;19.90;;;;;;-10502.40;;;;106368;1285;65709;-32
2022/03/17 05:32:00;;;;;;;21.90;19.50;;;;;;-10253.80;;;;106439;1284;66809;-33
2022/03/17 05:34:27;;;;;;;22.50;20.10;;;;;;-10253.80;;;;106387;1285;65843;-36
2022/03/17 05:36:55;;;;;;;22.30;20.00;;;;;;-10129.49;;;;106192;1285;65730;-36
2022/03/17 05:39:22;;;;;;;22.50;20.10;;;;;;-10129.49;;;;106400;1285;66802;-35
2022/03/17 05:41:49;;;;;;;22.60;20.30;;;;;;-10005.19;;;;106459;1284;65614;-34
2022/03/17 05:44:16;;;;;;;22.80;20.40;;;;;;-10378.10;;;;106391;1285;65598;-32
2022/03/17 05:46:43;;;;;;;23.10;20.70;;;;;;-10129.49;;;;106481;1284;65721;-32
2022/03/17 05:49:10;;;;;;;23.40;20.00;;;;;;-10005.19;;;;106488;1284;66199;-34
2022/03/17 05:51:37;;;;;;;22.20;19.80;;;;;;-10129.49;;;;106395;1285;65714;-34
2022/03/17 05:54:06;;;;;;;23.20;20.70;;;;;;-10253.80;;;;106438;1284;65856;-34
2022/03/17 05:56:33;;;;;;;23.50;20.40;;;;;;-10253.80;;;;106401;1285;65676;-42
2022/03/17 05:59:00;;;;;;;22.50;20.20;;;;;;-10253.80;;;;106328;1284;65719;-32
2022/03/17 06:01:27;;;;;;;22.40;20.20;;;;;;-10129.49;;;;106356;1285;66454;-33
2022/03/17 06:03:55;;;;;;;22.80;20.30;;;;;;-10378.10;;;;106340;1285;65712;-33
2022/03/17 06:06:22;;;;;;;21.80;19.50;;;;;;-10129.49;;;;106370;1285;66761;-34
2022/03/17 06:08:49;;;;;;;22.80;19.30;;;;;;-10129.49;;;;106342;1285;65649;-36
2022/03/17 06:11:16;;;;;;;21.00;18.80;;;;;;-10253.80;;;;106328;1285;65723;-33
2022/03/17 06:13:44;;;;;;;22.60;20.10;;;;;;-10129.49;;;;106307;1284;65714;-33
2022/03/17 06:16:11;;;;;;;22.30;19.90;;;;;;-10253.80;;;;106179;1284;65580;-33
2022/03/17 06:18:40;;;;;;;21.70;19.40;;;;;;-10378.10;;;;106352;1285;65609;-32
2022/03/17 06:21:07;;;;;;;22.60;19.70;;;;;;-10253.80;;;;106409;1284;65601;-32
2022/03/17 06:23:36;;;;;;;21.70;19.40;;;;;;-10253.80;;;;106056;1285;65598;-32
2022/03/17 06:26:03;;;;;;;21.80;19.40;;;;;;-10005.19;;;;106431;1284;66268;-35
2022/03/17 06:28:30;;;;;;;22.80;20.00;;;;;;-10129.49;;;;106377;1285;65604;-35
2022/03/17 06:30:57;;;;;;;22.40;18.60;;;;;;-10129.49;;;;106363;1284;65619;-32
2022/03/17 06:33:25;;;;;;;21.00;18.70;;;;;;-10378.10;;;;106371;1285;65595;-31
2022/03/17 06:35:52;;;;;;;22.80;20.20;;;;;;-10253.80;;;;106380;1285;65686;-33
2022/03/17 06:38:19;;;;;;;20.30;17.90;;;;;;-10005.19;;;;106357;1285;65738;-35
2022/03/17 06:40:47;;;;;;;23.50;19.80;;;;;;-10005.19;;;;106434;1284;65574;-33
2022/03/17 06:43:14;;;;;;;20.80;18.40;;;;;;-10378.10;;;;106418;1285;65599;-31
2022/03/17 06:45:42;;;;;;;21.60;19.10;;;;;;-10129.49;;;;106028;1285;65617;-35
2022/03/17 06:48:10;;;;;;;23.30;18.60;;;;;;-10253.80;;;;106384;1285;66037;-34
2022/03/17 06:50:38;;;;;;;20.20;18.00;;;;;;-10129.49;;;;106407;1284;65728;-34
2022/03/17 06:53:05;;;;;;;20.80;18.60;;;;;;-10005.19;;;;106421;1284;65725;-35
2022/03/17 06:55:33;;;;;;;22.10;18.40;;;;;;-10005.19;;;;106353;1285;65638;-36
2022/03/17 06:58:02;;;;;;;20.40;18.30;;;;;;-10129.49;;;;106350;1285;65620;-36
2022/03/17 07:00:29;;;;;;;20.90;18.70;;;;;;-10005.19;;;;106391;1285;65673;-37
2022/03/17 07:02:56;;;;;;;20.60;18.00;;;;;;-10378.10;;;;106390;1284;65842;-37
2022/03/17 07:05:24;;;;;;;20.30;18.00;;;;;;-10005.19;;;;106414;1284;65607;-33
2022/03/17 07:07:51;;;;;;;20.80;18.60;;;;;;-10253.80;;;;106355;1285;65674;-34
2022/03/17 07:10:19;;;;;;;18.90;16.80;;;;;;-10378.10;;;;106401;1284;65607;-36
2022/03/17 07:12:47;;;;;;;19.90;17.80;;;;;;-10129.49;;;;106434;1284;65611;-36
2022/03/17 07:15:14;;;;;;;20.70;18.20;;;;;;-10378.10;;;;106396;1285;65755;-35
2022/03/17 07:17:42;;;;;;;19.90;16.70;;;;;;-10253.80;;;;106350;1285;66014;-36
2022/03/17 07:20:15;;;;;;;20.80;17.70;;;;;;-10129.49;;;;106336;1285;65674;-36
2022/03/17 07:22:44;;;;;;;19.60;17.50;;;;;;-10253.80;;;;106198;1284;65740;-35
2022/03/17 07:25:12;;;;;;;19.90;17.70;;;;;;-10129.49;;;;106402;1285;65617;-34
2022/03/17 07:27:45;;;;;;;19.60;17.50;;;;;;-10005.19;;;;106394;1285;65585;-34
2022/03/17 07:30:18;;;;;;;18.80;16.80;;;;;;-10005.19;;;;106338;1285;65713;-32
2022/03/17 07:32:48;;;;;;;19.80;17.20;;;;;;-10129.49;;;;106205;1285;65604;-32
2022/03/17 07:35:15;;;;;;;19.80;17.50;;;;;;-10253.80;;;;106419;1284;65727;-32
2022/03/17 07:37:43;;;;;;;18.70;16.30;;;;;;-10129.49;;;;106384;1285;65599;-33
2022/03/17 07:40:12;;;;;;;18.90;16.90;;;;;;-10253.80;;;;106097;1285;65655;-32
2022/03/17 07:42:40;;;;;;;19.20;17.20;;;;;;-10005.19;;;;106370;1285;65547;-33
2022/03/17 07:45:08;;;;;;;18.60;16.70;;;;;;-10378.10;;;;106354;1285;64403;-36
2022/03/17 07:47:34;;;;;;;19.80;17.80;;;;;;-10378.10;;;;106421;1284;66779;-37
2022/03/17 07:50:04;;;;;;;18.20;16.30;;;;;;-10129.49;;;;106364;1285;65725;-35
2022/03/17 07:52:31;;;;;;;18.80;16.80;;;;;;-10129.49;;;;106355;1284;65746;-36
2022/03/17 07:54:59;;;;;;;17.70;15.90;;;;;;-10005.19;;;;106374;1285;65438;-32
2022/03/17 07:57:26;;;;;;;18.20;15.80;;;;;;-10253.80;;;;106371;1285;65709;-32
2022/03/17 07:59:53;;;;;;;17.80;15.90;;;;;;-10005.19;;;;106408;1284;65623;-32
2022/03/17 08:02:20;;;;;;;17.60;15.70;;;;;;-10253.80;;;;106455;1284;65745;-32
2022/03/17 08:04:50;;;;;;;17.10;15.30;;;;;;-10129.49;;;;106396;1285;66638;-36
2022/03/17 08:07:17;;;;;;;17.80;15.20;;;;;;-10253.80;;;;106377;1285;65710;-35
2022/03/17 08:09:45;;;;;;;17.70;15.90;;;;;;-10129.49;;;;106207;1285;66106;-40
2022/03/17 08:12:12;;;;;;;17.00;15.10;;;;;;-10253.80;;;;106314;1285;66002;-33
2022/03/17 08:14:40;;;;;;;17.20;15.30;;;;;;-10129.49;;;;106411;1284;65639;-33
2022/03/17 08:17:09;;;;;;;16.30;14.20;;;;;;-10005.19;;;;106366;1284;65621;-35
2022/03/17 08:19:37;;;;;;;17.50;15.50;;;;;;-10378.10;;;;106009;1285;65683;-33
2022/03/17 08:22:04;;;;;;;18.40;15.80;;;;;;-10129.49;;;;106337;1285;65610;-31
2022/03/17 08:24:32;;;;;;;16.90;15.30;;;;;;-10005.19;;;;106353;1284;65615;-34
2022/03/17 08:27:02;;;;;;;17.10;15.10;;;;;;-10005.19;;;;105972;1285;65700;-34
2022/03/17 08:29:30;;;;;;;20.10;16.40;;;;;;-10253.80;;;;106345;1284;65779;-33
2022/03/17 08:31:59;;;;;;;20.60;18.40;;;;;;-10253.80;;;;106366;1284;65681;-32
2022/03/17 08:34:26;;;;;;;18.40;16.50;;;;;;-10005.19;;;;106175;1286;65611;-32
2022/03/17 08:36:55;;;;;;;20.20;18.00;;;;;;-10129.49;;;;106357;1284;65824;-33
2022/03/17 08:39:24;;;;;;;18.80;16.50;;;;;;-10005.19;;;;106284;1285;65699;-32
2022/03/17 08:41:53;;;;;;;19.40;16.60;;;;;;-10253.80;;;;106384;1284;65687;-35
2022/03/17 08:44:20;;;;;;;19.20;16.50;;;;;;-10129.49;;;;106399;1285;67584;-32
2022/03/17 08:49:34;;;;;;;19.50;17.40;;;;;;-10129.49;;;;106335;1284;65575;-31
2022/03/17 08:52:02;;;;;;;19.00;15.70;;;;;;-10005.19;;;;106404;1284;65571;-32
2022/03/17 08:54:33;;;;;;;18.90;16.90;;;;;;-10005.19;;;;106336;1284;65744;-33
2022/03/17 08:57:00;;;;;;;17.90;16.00;;;;;;-10378.10;;;;106336;1284;66390;-34
2022/03/17 08:59:30;;;;;;;18.20;15.50;;;;;;-10129.49;;;;106342;1284;65727;-33
2022/03/17 09:02:11;;;;;;;15.70;14.00;;;;;;-10129.49;;;;106334;1285;65848;-33
2022/03/17 09:04:38;;;;;;;15.60;14.00;;;;;;-10253.80;;;;106370;1284;65606;-32
2022/03/17 09:07:06;;;;;;;15.90;14.30;;;;;;-10378.10;;;;106300;1285;65661;-30
2022/03/17 09:09:36;;;;;;;14.10;12.60;;;;;;-10129.49;;;;106130;1284;65696;-33
2022/03/17 09:12:06;;;;;;;17.20;15.20;;;;;;-10005.19;;;;106244;1284;65902;-34
2022/03/17 09:14:36;;;;;;;14.90;13.40;;;;;;-10253.80;;;;106364;1284;65607;-35
2022/03/17 09:17:04;;;;;;;14.90;13.30;;;;;;-10253.80;;;;106289;1284;65744;-33
2022/03/17 09:19:32;;;;;;;14.30;12.70;;;;;;-10129.49;;;;106413;1285;66231;-31
2022/03/17 09:22:00;;;;;;;15.50;13.90;;;;;;-10129.49;;;;106300;1284;65725;-32
2022/03/17 09:24:30;;;;;;;15.10;13.50;;;;;;-10005.19;;;;106438;1285;65575;-33
2022/03/17 09:26:59;;;;;;;15.70;14.00;;;;;;-10129.49;;;;106379;1284;65732;-33
2022/03/17 09:29:28;;;;;;;16.00;14.10;;;;;;-10005.19;;;;106217;1286;65726;-32
2022/03/17 09:31:58;;;;;;;15.80;13.30;;;;;;-10129.49;;;;106453;1284;65616;-32
2022/03/17 09:34:27;;;;;;;14.80;13.20;;;;;;-10129.49;;;;106178;1287;66044;-32
2022/03/17 09:36:54;;;;;;;15.20;13.00;;;;;;-10005.19;;;;106361;1285;65686;-35
2022/03/17 09:39:44;;;;;;;13.80;12.30;;;;;;-10005.19;;;;106292;1284;65510;-33
2022/03/17 09:42:18;;;;;;;15.00;13.10;;;;;;-10253.80;;;;106333;1285;65750;-32
2022/03/17 09:44:50;;;;;;;15.60;14.00;;;;;;-10253.80;;;;106384;1284;66410;-31
2022/03/17 09:47:21;;;;;;;14.00;12.10;;;;;;-10253.80;;;;106276;1285;65684;-30
2022/03/17 09:49:52;;;;;;;15.70;14.10;;;;;;-10129.49;;;;106154;1285;65726;-31
2022/03/17 09:52:21;;;;;;;14.40;12.90;;;;;;-10253.80;;;;106206;1286;65805;-30
2022/03/17 09:54:50;;;;;;;13.90;12.40;;;;;;-10253.80;;;;106293;1285;65606;-34
2022/03/17 09:57:18;;;;;;;14.50;12.80;;;;;;-10005.19;;;;106381;1285;65762;-33
2022/03/17 09:59:48;;;;;;;13.50;12.00;;;;;;-10378.10;;;;106159;1286;65829;-32
2022/03/17 10:02:17;;;;;;;13.90;12.30;;;;;;-10378.10;;;;106580;1285;66266;-31
2022/03/17 10:04:47;;;;;;;13.60;11.40;;;;;;-10129.49;;;;106225;1284;65607;-31
2022/03/17 10:07:18;;;;;;;13.30;11.70;;;;;;-10129.49;;;;106207;1285;65572;-33
2022/03/17 10:09:45;;;;;;;14.50;12.40;;;;;;-10129.49;;;;106537;1284;65729;-33
2022/03/17 10:12:14;;;;;;;13.80;12.20;;;;;;-10253.80;;;;106235;1284;65698;-33
2022/03/17 10:14:51;;;;;;;15.90;13.40;;;;;;-10253.80;;;;106385;1284;65489;-34
2022/03/17 10:17:35;;;;;;;15.90;12.80;;;;;;-10005.19;;;;106236;1285;66104;-32
2022/03/17 10:20:28;;;;;;;14.30;12.80;;;;;;-10129.49;;;;106108;1287;65698;-33
2022/03/17 10:22:57;;;;;;;16.20;14.40;;;;;;-10129.49;;;;106360;1284;66689;-35
2022/03/17 10:25:29;;;;;;;15.30;11.90;;;;;;-10129.49;;;;105968;1285;65748;-37
2022/03/17 10:27:59;;;;;;;13.80;12.30;;;;;;-10253.80;;;;106286;1285;65643;-33
2022/03/17 10:30:40;;;;;;;16.40;13.20;;;;;;-10005.19;;;;106300;1284;65890;-34
2022/03/17 10:33:15;;;;;;;15.20;13.50;;;;;;-10253.80;;;;106325;1284;65716;-33
2022/03/17 10:35:46;;;;;;;15.90;13.40;;;;;;-10253.80;;;;106328;1285;65693;-34
2022/03/17 10:38:23;;;;;;;16.20;13.30;;;;;;-10253.80;;;;106328;1284;65853;-36
2022/03/17 10:41:01;;;;;;;15.30;13.70;;;;;;-10005.19;;;;106236;1284;65687;-34
2022/03/17 10:43:29;;;;;;;17.40;14.10;;;;;;-10005.19;;;;106428;1284;65620;-34
2022/03/17 10:46:20;;;;;;;15.50;13.30;;;;;;-10129.49;;;;106540;1284;66262;-34
2022/03/17 10:49:05;;;;;;;16.70;14.60;;;;;;-10253.80;;;;106087;1284;66488;-33
2022/03/17 10:51:40;;;;;;;16.50;14.40;;;;;;-10129.49;;;;106341;1285;65786;-34
2022/03/17 10:54:15;;;;;;;16.20;14.30;;;;;;-10253.80;;;;106309;1285;65604;-33
2022/03/17 10:57:06;;;;;;;17.30;14.70;;;;;;-10005.19;;;;106342;1284;65810;-33
2022/03/17 10:59:43;;;;;;;16.00;13.60;;;;;;-10005.19;;;;106479;1284;65546;-35
2022/03/17 11:02:17;;;;;;;16.70;14.00;;;;;;-10253.80;;;;106042;1286;65614;-36
2022/03/17 11:04:46;;;;;;;15.10;13.10;;;;;;-10129.49;;;;106343;1284;65606;-33
2022/03/17 11:07:15;;;;;;;15.90;14.20;;;;;;-10129.49;;;;106317;1284;65692;-36
2022/03/17 11:09:44;;;;;;;16.50;13.40;;;;;;-10129.49;;;;106338;1285;65621;-33
2022/03/17 11:12:17;;;;;;;15.40;13.40;;;;;;-10005.19;;;;106373;1284;65581;-32
2022/03/17 11:14:50;;;;;;;17.40;14.90;;;;;;-10129.49;;;;106293;1285;65725;-36
2022/03/17 11:17:49;;;;;;;15.70;13.80;;;;;;-10378.10;;;;106337;1285;65717;-32
2022/03/17 11:20:23;;;;;;;13.70;12.30;;;;;;-10253.80;;;;106167;1286;65764;-32
2022/03/17 11:23:11;;;;;;;15.30;13.40;;;;;;-10253.80;;;;106304;1284;65857;-38
2022/03/17 11:25:38;;;;;;;14.00;12.50;;;;;;-10502.40;;;;106230;1287;65623;-33
2022/03/17 11:28:08;;;;;;;15.00;12.50;;;;;;-10378.10;;;;106014;1287;65669;-30
2022/03/17 11:30:49;;;;;;;15.30;12.30;;;;;;-10129.49;;;;105950;1285;65602;-32
2022/03/17 11:33:21;;;;;;;14.00;11.50;;;;;;-10378.10;;;;106333;1285;65584;-33
2022/03/17 11:36:09;;;;;;;14.00;12.50;;;;;;-10129.49;;;;106254;1286;65699;-33
2022/03/17 11:38:38;;;;;;;13.60;11.80;;;;;;-10005.19;;;;106255;1284;65587;-33
2022/03/17 11:41:17;;;;;;;12.90;11.60;;;;;;-10129.49;;;;106387;1284;65751;-37
2022/03/17 11:43:44;;;;;;;15.40;12.00;;;;;;-10129.49;;;;106094;1286;65641;-34
2022/03/17 11:46:16;;;;;;;13.70;12.00;;;;;;-10378.10;;;;106294;1285;65585;-36
2022/03/17 11:48:46;;;;;;;12.80;10.10;;;;;;-10005.19;;;;106322;1284;66164;-31
2022/03/17 11:51:15;;;;;;;12.00;10.70;;;;;;-10129.49;;;;106298;1285;65563;-34
2022/03/17 11:54:02;;;;;;;11.20;10.00;;;;;;-10378.10;;;;106320;1284;65727;-31
2022/03/17 11:56:43;;;;;;;14.60;11.50;;;;;;-10253.80;;;;106343;1284;65735;-33
2022/03/17 11:59:14;;;;;;;12.00;10.70;;;;;;-10005.19;;;;106354;1284;65824;-35
2022/03/17 12:01:46;;;;;;;11.70;10.50;;;;;;-10253.80;;;;106342;1285;65565;-34
2022/03/17 12:04:30;;;;;;;12.90;11.50;;;;;;-10253.80;;;;106014;1287;66258;-33
2022/03/17 12:07:20;;;;;;;13.10;10.90;;;;;;-10253.80;;;;106351;1285;66820;-31
2022/03/17 12:09:48;;;;;;;12.10;10.90;;;;;;-10253.80;;;;106315;1286;65741;-34
2022/03/17 12:12:26;;;;;;;13.40;11.10;;;;;;-10129.49;;;;106258;1285;66939;-32
2022/03/17 12:14:59;;;;;;;12.40;10.80;;;;;;-10129.49;;;;106300;1284;65816;-32
2022/03/17 12:17:29;;;;;;;13.80;11.40;;;;;;-10129.49;;;;106148;1285;65647;-33
2022/03/17 12:20:11;;;;;;;12.70;10.50;;;;;;-10005.19;;;;106493;1284;65798;-31
2022/03/17 12:22:42;;;;;;;12.60;10.40;;;;;;-10129.49;;;;106025;1287;65691;-30
2022/03/17 12:25:23;;;;;;;11.20;9.80;;;;;;-10253.80;;;;106095;1286;65693;-32
2022/03/17 12:27:59;;;;;;;13.40;10.40;;;;;;-10378.10;;;;105703;1286;65702;-31
2022/03/17 12:30:33;;;;;;;10.40;9.40;;;;;;-10253.80;;;;106270;1285;65695;-33
2022/03/17 12:33:04;;;;;;;12.10;10.70;;;;;;-10005.19;;;;106008;1287;65660;-32
2022/03/17 12:35:38;;;;;;;13.10;10.80;;;;;;-10005.19;;;;106339;1284;65729;-30
2022/03/17 12:38:09;;;;;;;11.60;9.40;;;;;;-10253.80;;;;106073;1287;65591;-33
2022/03/17 12:40:45;;;;;;;10.50;9.40;;;;;;-10253.80;;;;106225;1286;65738;-33
2022/03/17 12:43:15;;;;;;;10.40;8.90;;;;;;-10253.80;;;;106412;1284;64653;-31
2022/03/17 12:45:48;;;;;;;11.00;9.90;;;;;;-10253.80;;;;106122;1287;66438;-29
2022/03/17 12:48:17;;;;;;;11.80;9.80;;;;;;-10253.80;;;;106240;1284;65591;-31
2022/03/17 12:50:45;;;;;;;11.40;9.70;;;;;;-10005.19;;;;106287;1285;65622;-31
2022/03/17 12:53:14;;;;;;;10.80;9.30;;;;;;-10378.10;;;;106360;1285;65822;-30
2022/03/17 12:55:41;;;;;;;11.40;10.00;;;;;;-10129.49;;;;106372;1285;65697;-30